Time;durP1;ratioP1;P1;durP2;ratioP2;P2;SDS_P1;SDS_P2;PMS_P1;PMS_P2;Temp;Humidity;BMP_temperature;BMP_pressure;BME280_temperature;BME280_humidity;BME280_pressure;Samples;Min_cycle;Max_cycle;Signal;HPM_P1;HPM_P2
2023/04/12 00:01:08;;;;;;;9.65;1.42;;;9.00;91.10;;;;;;6140485;22;88153;-73
2023/04/12 00:03:33;;;;;;;11.65;1.02;;;9.00;91.40;;;;;;6139183;22;91411;-73
2023/04/12 00:06:02;;;;;;;6.40;1.00;;;9.00;91.50;;;;;;6115429;22;88102;-73
2023/04/12 00:08:32;;;;;;;7.88;1.65;;;9.00;91.50;;;;;;6140200;22;87646;-73
2023/04/12 00:10:59;;;;;;;5.28;1.33;;;9.00;91.60;;;;;;6116912;22;90486;-73
2023/04/12 00:13:25;;;;;;;7.97;1.48;;;9.00;91.70;;;;;;6116591;22;91235;-73
2023/04/12 00:15:51;;;;;;;7.43;1.20;;;9.00;91.70;;;;;;6141026;22;88068;-73
2023/04/12 00:18:16;;;;;;;8.63;1.50;;;9.00;91.90;;;;;;6140334;22;89969;-73
2023/04/12 00:20:42;;;;;;;6.85;1.13;;;9.00;91.80;;;;;;6133603;22;91026;-73
2023/04/12 00:23:12;;;;;;;9.95;1.58;;;9.00;92.10;;;;;;6142735;22;92076;-73
2023/04/12 00:25:38;;;;;;;9.35;1.58;;;8.90;92.40;;;;;;6145582;22;87699;-73
2023/04/12 00:28:04;;;;;;;6.85;1.27;;;8.90;92.20;;;;;;6142014;22;90322;-73
2023/04/12 00:30:30;;;;;;;5.10;1.13;;;8.90;92.40;;;;;;6169675;22;90369;-73
2023/04/12 00:32:56;;;;;;;4.15;1.13;;;8.90;92.30;;;;;;6145246;22;91804;-73
2023/04/12 00:35:22;;;;;;;6.75;1.10;;;8.90;92.20;;;;;;6144546;22;88063;-77
2023/04/12 00:37:48;;;;;;;7.72;1.17;;;8.90;92.20;;;;;;6171533;22;87203;-73
2023/04/12 00:40:14;;;;;;;5.25;1.25;;;8.90;92.20;;;;;;6169969;22;88547;-73
2023/04/12 00:42:40;;;;;;;9.35;1.65;;;8.80;92.20;;;;;;6170205;22;88269;-73
2023/04/12 00:45:06;;;;;;;3.60;1.10;;;8.90;92.30;;;;;;6144472;22;88161;-73
2023/04/12 00:47:35;;;;;;;8.90;1.20;;;8.80;92.30;;;;;;6144093;22;91250;-73
2023/04/12 00:50:02;;;;;;;5.68;1.25;;;8.90;92.50;;;;;;6145726;22;91658;-73
2023/04/12 00:52:32;;;;;;;8.20;1.38;;;8.90;92.50;;;;;;6170439;22;88392;-73
2023/04/12 00:55:00;;;;;;;7.80;1.17;;;8.90;92.40;;;;;;6145231;22;87682;-73
2023/04/12 00:57:26;;;;;;;7.20;1.60;;;8.80;92.10;;;;;;6169717;22;87639;-73
2023/04/12 00:59:52;;;;;;;7.90;1.42;;;8.90;92.20;;;;;;6170145;22;87843;-73
2023/04/12 01:02:18;;;;;;;11.98;1.40;;;8.80;92.00;;;;;;6148536;22;87949;-73
2023/04/12 01:04:44;;;;;;;6.68;1.77;;;8.90;92.30;;;;;;6164154;22;87277;-72
2023/04/12 01:07:28;;;;;;;4.88;1.20;;;8.80;92.30;;;;;;6177913;22;90030;-73
2023/04/12 01:10:40;;;;;;;13.50;1.10;;;8.90;92.40;;;;;;6204476;22;88778;-73
2023/04/12 01:13:47;;;;;;;3.65;0.85;;;8.80;92.20;;;;;;6205448;22;88907;-73
2023/04/12 01:16:29;;;;;;;4.05;0.82;;;8.90;92.10;;;;;;6055757;23;87907;-72
2023/04/12 01:19:02;;;;;;;3.70;0.90;;;8.90;92.00;;;;;;6082021;23;87829;-73
2023/04/12 01:21:44;;;;;;;6.87;1.00;;;8.90;92.10;;;;;;6056309;23;91510;-73
2023/04/12 01:24:35;;;;;;;4.75;1.02;;;8.90;91.90;;;;;;6081468;23;87856;-73
2023/04/12 01:27:02;;;;;;;4.10;0.93;;;8.90;91.90;;;;;;6081346;23;87608;-72
2023/04/12 01:29:29;;;;;;;4.50;1.20;;;8.90;91.90;;;;;;6057135;23;90474;-73
2023/04/12 01:32:00;;;;;;;5.22;0.82;;;8.90;91.80;;;;;;6081854;23;88275;-73
2023/04/12 01:34:29;;;;;;;5.28;0.82;;;8.90;92.00;;;;;;6080996;23;88787;-72
2023/04/12 01:36:57;;;;;;;3.30;0.73;;;8.90;91.80;;;;;;6080587;23;88548;-73
2023/04/12 01:39:22;;;;;;;3.60;0.60;;;8.90;91.80;;;;;;6055932;23;91228;-72
2023/04/12 01:41:48;;;;;;;1.75;0.90;;;8.80;92.10;;;;;;6081115;23;90153;-73
2023/04/12 01:44:15;;;;;;;2.10;0.73;;;8.90;92.30;;;;;;6080849;23;87606;-73
2023/04/12 01:46:43;;;;;;;3.35;0.70;;;8.80;91.80;;;;;;6128916;22;87793;-73
2023/04/12 01:49:11;;;;;;;2.90;1.10;;;8.90;92.30;;;;;;6205386;22;87759;-72
2023/04/12 01:51:59;;;;;;;7.53;1.17;;;8.80;91.50;;;;;;6205279;22;88373;-73
2023/04/12 01:54:29;;;;;;;3.38;0.65;;;8.80;91.90;;;;;;6205851;22;88538;-73
2023/04/12 01:56:58;;;;;;;3.53;0.82;;;8.80;91.80;;;;;;6178612;22;87574;-73
2023/04/12 01:59:29;;;;;;;4.63;0.80;;;8.80;92.00;;;;;;6177945;22;90217;-73
2023/04/12 02:01:55;;;;;;;4.05;0.90;;;8.80;91.60;;;;;;6205949;22;89309;-72
2023/04/12 02:04:24;;;;;;;5.50;0.85;;;8.80;91.90;;;;;;6177098;22;91531;-73
2023/04/12 02:06:50;;;;;;;2.78;0.70;;;8.70;92.60;;;;;;6178404;22;87551;-73
2023/04/12 02:09:15;;;;;;;3.17;0.77;;;8.70;92.00;;;;;;6205201;22;87555;-72
2023/04/12 02:11:46;;;;;;;3.97;0.70;;;8.80;92.60;;;;;;6178138;22;91622;-73
2023/04/12 02:14:12;;;;;;;4.43;0.80;;;8.70;92.20;;;;;;6177994;22;91349;-73
2023/04/12 02:16:38;;;;;;;5.45;0.60;;;8.70;92.10;;;;;;6205898;22;87560;-74
2023/04/12 02:19:07;;;;;;;4.50;1.10;;;8.70;92.30;;;;;;6206176;22;87671;-73
2023/04/12 02:21:40;;;;;;;2.20;0.68;;;8.70;92.30;;;;;;6204964;22;93671;-73
2023/04/12 02:24:05;;;;;;;1.80;0.50;;;8.70;92.30;;;;;;6204811;22;87990;-73
2023/04/12 02:26:31;;;;;;;1.90;0.80;;;8.70;92.20;;;;;;6205054;22;88661;-73
2023/04/12 02:28:57;;;;;;;2.80;0.50;;;8.70;92.10;;;;;;6179440;22;90271;-74
2023/04/12 02:31:23;;;;;;;2.05;0.80;;;8.70;92.50;;;;;;6177953;22;92304;-73
2023/04/12 02:33:49;;;;;;;4.38;0.77;;;8.70;92.20;;;;;;6205008;22;87995;-73
2023/04/12 02:36:15;;;;;;;2.85;0.85;;;8.70;92.20;;;;;;6205356;22;87711;-73
2023/04/12 02:38:40;;;;;;;2.10;0.50;;;8.70;92.30;;;;;;6204615;22;89880;-74
2023/04/12 02:41:06;;;;;;;1.88;0.60;;;8.70;91.90;;;;;;6178737;22;90169;-73
2023/04/12 02:43:32;;;;;;;2.97;0.63;;;8.70;92.00;;;;;;6205830;22;88192;-73
2023/04/12 02:45:58;;;;;;;2.80;0.73;;;8.80;92.40;;;;;;6205443;22;87832;-73
2023/04/12 02:48:24;;;;;;;3.15;0.50;;;8.80;91.80;;;;;;6204848;22;87451;-73
2023/04/12 02:50:50;;;;;;;2.50;0.40;;;8.80;92.00;;;;;;6138773;22;91870;-73
2023/04/12 02:53:16;;;;;;;2.00;0.50;;;8.80;91.90;;;;;;6108827;23;92016;-74
2023/04/12 02:55:43;;;;;;;5.82;0.65;;;8.80;92.30;;;;;;6112267;23;87449;-74
2023/04/12 02:58:09;;;;;;;4.22;0.80;;;8.70;92.50;;;;;;6110954;23;89712;-74
2023/04/12 03:00:34;;;;;;;4.80;0.52;;;8.80;92.30;;;;;;6110765;23;91562;-74
2023/04/12 03:03:01;;;;;;;2.40;0.63;;;8.80;92.80;;;;;;6110315;23;87468;-73
2023/04/12 03:05:27;;;;;;;2.70;0.60;;;8.80;92.80;;;;;;6080012;23;87550;-74
2023/04/12 03:07:54;;;;;;;2.80;0.70;;;8.70;93.00;;;;;;6082871;23;90649;-74
2023/04/12 03:10:20;;;;;;;4.50;0.80;;;8.70;93.00;;;;;;6081631;23;87928;-73
2023/04/12 03:12:45;;;;;;;2.03;0.55;;;8.70;93.10;;;;;;6056042;23;90035;-73
2023/04/12 03:15:11;;;;;;;2.28;0.60;;;8.80;93.40;;;;;;6080670;23;88627;-73
2023/04/12 03:17:37;;;;;;;3.78;0.60;;;8.70;93.30;;;;;;6081100;23;90631;-73
2023/04/12 03:20:09;;;;;;;2.75;0.75;;;8.70;93.10;;;;;;6082011;23;91536;-73
2023/04/12 03:22:36;;;;;;;2.55;0.95;;;8.80;93.50;;;;;;6104045;23;95923;-73
2023/04/12 03:25:05;;;;;;;4.18;0.80;;;8.80;93.50;;;;;;6109020;22;87547;-73
2023/04/12 03:27:31;;;;;;;4.10;0.70;;;8.80;93.50;;;;;;6115115;22;91608;-73
2023/04/12 03:29:57;;;;;;;2.28;0.70;;;8.80;93.60;;;;;;6140407;22;89018;-74
2023/04/12 03:32:24;;;;;;;5.78;0.65;;;8.80;93.50;;;;;;6141103;22;87747;-73
2023/04/12 03:34:50;;;;;;;5.20;0.85;;;8.80;93.60;;;;;;6116837;22;87475;-73
2023/04/12 03:37:16;;;;;;;4.13;0.68;;;8.80;93.60;;;;;;6165287;22;90587;-73
2023/04/12 03:39:46;;;;;;;1.95;0.57;;;8.80;93.80;;;;;;6176520;22;92661;-73
2023/04/12 03:42:12;;;;;;;4.32;0.93;;;8.80;93.80;;;;;;6176820;22;90945;-72
2023/04/12 03:44:38;;;;;;;4.75;1.35;;;8.80;93.90;;;;;;6178103;22;87059;-73
2023/04/12 03:47:03;;;;;;;4.60;0.70;;;8.80;94.30;;;;;;6178173;22;90108;-73
2023/04/12 03:49:29;;;;;;;1.77;0.63;;;8.80;94.30;;;;;;6178017;22;91937;-72
2023/04/12 03:51:56;;;;;;;1.90;0.60;;;8.80;94.10;;;;;;6176930;22;91068;-73
2023/04/12 03:54:21;;;;;;;4.85;0.73;;;8.80;94.00;;;;;;6205274;22;87446;-73
2023/04/12 03:56:47;;;;;;;2.45;0.77;;;8.80;94.40;;;;;;6206211;22;87387;-72
2023/04/12 03:59:13;;;;;;;4.28;0.82;;;8.80;94.30;;;;;;6177304;22;91414;-72
2023/04/12 04:01:40;;;;;;;2.55;0.68;;;8.80;94.50;;;;;;6206536;22;87696;-74
2023/04/12 04:04:06;;;;;;;4.10;0.52;;;8.70;94.40;;;;;;6176484;22;89012;-72
2023/04/12 04:06:31;;;;;;;2.17;0.70;;;8.70;94.40;;;;;;6177520;22;89202;-73
2023/04/12 04:08:57;;;;;;;2.25;0.88;;;8.80;94.40;;;;;;6205032;22;87763;-73
2023/04/12 04:11:24;;;;;;;4.03;1.05;;;8.80;94.60;;;;;;6177864;22;91143;-73
2023/04/12 04:13:50;;;;;;;1.63;0.60;;;8.80;94.50;;;;;;6179091;22;87743;-73
2023/04/12 04:16:16;;;;;;;5.07;0.60;;;8.80;94.60;;;;;;6204319;22;87241;-72
2023/04/12 04:18:42;;;;;;;2.72;0.82;;;8.80;94.60;;;;;;6139502;22;90607;-72
2023/04/12 04:21:08;;;;;;;2.67;0.95;;;8.80;94.60;;;;;;6115851;22;89931;-73
2023/04/12 04:23:37;;;;;;;2.60;0.55;;;8.80;94.80;;;;;;6115332;22;87715;-73
2023/04/12 04:26:09;;;;;;;2.88;0.50;;;8.80;94.80;;;;;;6116451;22;90528;-73
2023/04/12 04:28:38;;;;;;;4.28;0.88;;;8.80;94.90;;;;;;6114752;22;96829;-73
2023/04/12 04:31:05;;;;;;;4.38;0.57;;;8.80;94.80;;;;;;6141281;22;88419;-72
2023/04/12 04:33:34;;;;;;;3.38;0.70;;;8.80;94.80;;;;;;6140467;22;87496;-73
2023/04/12 04:36:02;;;;;;;5.00;0.80;;;8.80;94.70;;;;;;6140463;22;89981;-72
2023/04/12 04:38:31;;;;;;;2.28;0.45;;;8.80;94.80;;;;;;6139754;22;87776;-72
2023/04/12 04:40:58;;;;;;;2.05;0.60;;;8.80;94.90;;;;;;6116033;22;90966;-72
2023/04/12 04:43:25;;;;;;;2.10;0.60;;;8.80;94.90;;;;;;6141646;22;87526;-72
2023/04/12 04:45:54;;;;;;;1.48;0.50;;;8.80;94.90;;;;;;6140978;22;87635;-73
2023/04/12 04:48:20;;;;;;;1.48;0.38;;;8.80;95.00;;;;;;6115193;22;91428;-73
2023/04/12 04:50:46;;;;;;;2.42;1.20;;;8.80;94.60;;;;;;6198139;22;87081;-72
2023/04/12 04:53:12;;;;;;;4.45;0.63;;;8.80;94.70;;;;;;6176767;22;88634;-73
2023/04/12 04:55:38;;;;;;;2.63;0.50;;;8.80;95.20;;;;;;6205846;22;87524;-72
2023/04/12 04:58:07;;;;;;;2.03;0.50;;;8.80;94.70;;;;;;6204882;22;88734;-73
2023/04/12 05:00:35;;;;;;;3.60;0.45;;;8.90;94.60;;;;;;6134485;22;88196;-72
2023/04/12 05:03:04;;;;;;;1.95;0.45;;;8.80;94.70;;;;;;6079628;23;87642;-73
2023/04/12 05:05:30;;;;;;;2.20;0.45;;;8.80;94.70;;;;;;6079810;23;87920;-72
2023/04/12 05:07:56;;;;;;;1.70;0.40;;;8.90;94.80;;;;;;6081364;23;87742;-72
2023/04/12 05:10:23;;;;;;;1.98;0.40;;;8.90;94.70;;;;;;6080904;23;87851;-72
2023/04/12 05:12:48;;;;;;;0.82;0.40;;;8.90;94.70;;;;;;6080844;23;87541;-73
2023/04/12 05:15:14;;;;;;;0.82;0.60;;;8.80;94.80;;;;;;6080210;23;89554;-73
2023/04/12 05:17:40;;;;;;;3.75;0.68;;;8.90;94.90;;;;;;6079877;23;92078;-73
2023/04/12 05:20:06;;;;;;;1.17;0.60;;;8.90;94.80;;;;;;6081046;23;88327;-72
2023/04/12 05:22:33;;;;;;;2.63;0.50;;;8.90;95.30;;;;;;6080785;23;87220;-73
2023/04/12 05:24:58;;;;;;;4.22;0.52;;;8.90;95.00;;;;;;6082991;23;87984;-73
2023/04/12 05:27:30;;;;;;;1.38;0.40;;;8.90;95.10;;;;;;6082241;23;91299;-73
2023/04/12 05:29:56;;;;;;;2.47;0.50;;;8.90;94.90;;;;;;6083199;23;91248;-73
2023/04/12 05:32:23;;;;;;;0.60;0.35;;;8.90;95.00;;;;;;6131198;22;87840;-73
2023/04/12 05:34:49;;;;;;;0.88;0.30;;;8.90;95.10;;;;;;6196140;22;86915;-75
2023/04/12 05:37:14;;;;;;;2.15;0.30;;;8.90;95.10;;;;;;6207698;22;88622;-75
2023/04/12 05:39:40;;;;;;;1.08;0.35;;;8.90;94.90;;;;;;6206999;22;87872;-75
2023/04/12 05:42:06;;;;;;;1.65;0.30;;;8.90;94.80;;;;;;6179663;22;88111;-75
2023/04/12 05:44:35;;;;;;;0.57;0.40;;;8.90;95.00;;;;;;6207925;22;87992;-77
2023/04/12 05:47:01;;;;;;;1.60;0.40;;;9.00;94.90;;;;;;6208727;22;87441;-78
2023/04/12 05:49:30;;;;;;;1.60;0.38;;;9.00;94.90;;;;;;6207533;22;88397;-77
2023/04/12 05:51:57;;;;;;;0.98;0.40;;;9.00;95.00;;;;;;6208233;22;87200;-77
2023/04/12 05:54:22;;;;;;;3.38;0.40;;;9.00;95.10;;;;;;6209024;22;87904;-76
2023/04/12 05:56:48;;;;;;;1.48;0.30;;;9.00;95.40;;;;;;6181602;22;89751;-76
2023/04/12 05:59:13;;;;;;;3.35;0.60;;;9.00;94.90;;;;;;6207887;22;87594;-77
2023/04/12 06:01:41;;;;;;;0.30;0.30;;;9.00;95.10;;;;;;6207648;22;87783;-77
2023/04/12 06:04:07;;;;;;;0.57;0.30;;;9.00;94.90;;;;;;6206953;22;87368;-76
2023/04/12 06:06:33;;;;;;;2.25;0.65;;;9.00;95.30;;;;;;6178478;22;92230;-76
2023/04/12 06:09:01;;;;;;;1.13;0.50;;;9.00;95.10;;;;;;6207437;22;89515;-75
2023/04/12 06:11:27;;;;;;;1.02;0.35;;;9.10;95.20;;;;;;6177005;22;87655;-76
2023/04/12 06:13:54;;;;;;;0.60;0.30;;;9.10;95.10;;;;;;6206763;22;87435;-76
2023/04/12 06:16:20;;;;;;;0.40;0.30;;;9.10;95.00;;;;;;6177109;22;91369;-77
2023/04/12 06:18:45;;;;;;;0.90;0.40;;;9.10;95.10;;;;;;6179392;22;91316;-76
2023/04/12 06:21:12;;;;;;;2.08;0.65;;;9.10;94.90;;;;;;6178138;22;87655;-77
2023/04/12 06:23:37;;;;;;;0.88;0.40;;;9.20;94.90;;;;;;6204892;22;87833;-77
2023/04/12 06:26:04;;;;;;;1.77;0.70;;;9.20;95.30;;;;;;6177296;22;91070;-77
2023/04/12 06:28:29;;;;;;;1.13;0.30;;;9.20;95.30;;;;;;6175761;22;92047;-77
2023/04/12 06:30:55;;;;;;;0.98;0.32;;;9.20;95.10;;;;;;6176058;22;88558;-76
2023/04/12 06:33:21;;;;;;;0.32;0.30;;;9.20;95.10;;;;;;6176174;22;90445;-77
2023/04/12 06:35:47;;;;;;;1.58;0.40;;;9.20;95.10;;;;;;6137649;22;90822;-77
2023/04/12 06:38:14;;;;;;;0.35;0.30;;;9.20;95.10;;;;;;6114005;22;91026;-77
2023/04/12 06:40:39;;;;;;;1.80;0.40;;;9.30;95.20;;;;;;6039342;22;87427;-77
2023/04/12 06:43:05;;;;;;;0.57;0.35;;;9.30;95.20;;;;;;6113666;22;90260;-77
2023/04/12 06:45:31;;;;;;;0.95;0.30;;;9.30;95.00;;;;;;6135997;22;90792;-78
2023/04/12 06:47:57;;;;;;;0.65;0.30;;;9.30;95.00;;;;;;6139657;22;88332;-77
2023/04/12 06:50:24;;;;;;;0.40;0.30;;;9.30;95.20;;;;;;6138057;22;88033;-77
2023/04/12 06:52:51;;;;;;;1.30;0.20;;;9.30;95.10;;;;;;6113224;22;89199;-79
2023/04/12 06:55:17;;;;;;;0.52;0.22;;;9.40;95.10;;;;;;6108682;23;89296;-78
2023/04/12 06:57:43;;;;;;;0.80;0.30;;;9.40;95.00;;;;;;6110608;23;90080;-78
2023/04/12 07:00:10;;;;;;;2.58;0.30;;;9.40;95.00;;;;;;6111040;23;87908;-78
2023/04/12 07:02:37;;;;;;;1.50;0.55;;;9.40;95.30;;;;;;6069468;23;89695;-78
2023/04/12 07:05:06;;;;;;;2.95;0.40;;;9.40;95.30;;;;;;6082083;23;91304;-77
2023/04/12 07:07:32;;;;;;;1.42;0.80;;;9.40;95.40;;;;;;6102928;23;88079;-77
2023/04/12 07:09:59;;;;;;;1.10;0.30;;;9.40;95.60;;;;;;6108902;23;93996;-77
2023/04/12 07:12:24;;;;;;;0.80;0.65;;;9.40;95.60;;;;;;6107504;23;87231;-77
2023/04/12 07:14:50;;;;;;;1.40;1.02;;;9.40;95.50;;;;;;6106929;23;91953;-78
2023/04/12 07:17:16;;;;;;;0.73;0.43;;;9.40;95.80;;;;;;6106484;23;91372;-77
2023/04/12 07:19:43;;;;;;;2.70;0.60;;;9.40;95.90;;;;;;6109525;23;88648;-77
2023/04/12 07:22:09;;;;;;;4.88;0.73;;;9.30;94.50;;;;;;6107542;23;89858;-77
2023/04/12 07:24:34;;;;;;;1.70;0.63;;;9.30;94.10;;;;;;6084145;23;90094;-77
2023/04/12 07:27:00;;;;;;;3.42;0.75;;;9.30;94.30;;;;;;6050390;23;89140;-77
2023/04/12 07:29:26;;;;;;;5.57;0.65;;;9.30;94.30;;;;;;6050440;23;87701;-77
2023/04/12 07:31:52;;;;;;;3.53;0.90;;;9.30;94.00;;;;;;6054500;23;87717;-77
2023/04/12 07:34:17;;;;;;;7.75;0.90;;;9.30;94.40;;;;;;6097870;23;92664;-77
2023/04/12 07:36:43;;;;;;;6.43;0.63;;;9.40;94.50;;;;;;6112253;23;87954;-77
2023/04/12 07:39:13;;;;;;;2.10;1.02;;;9.50;94.60;;;;;;6110139;23;87633;-77
2023/04/12 07:41:45;;;;;;;5.28;1.23;;;9.50;94.30;;;;;;6086525;23;89966;-77
2023/04/12 07:44:12;;;;;;;6.63;1.20;;;9.60;94.60;;;;;;6087497;23;90441;-76
2023/04/12 07:46:41;;;;;;;3.83;0.90;;;9.50;94.40;;;;;;6089284;23;90816;-77
2023/04/12 07:49:09;;;;;;;2.33;0.90;;;9.50;94.60;;;;;;6088063;23;88249;-77
2023/04/12 07:51:35;;;;;;;3.83;1.02;;;9.50;94.70;;;;;;6111612;23;90357;-78
2023/04/12 07:54:01;;;;;;;8.20;1.25;;;9.50;94.50;;;;;;6113177;23;87963;-77
2023/04/12 07:56:27;;;;;;;3.13;1.25;;;9.60;94.60;;;;;;6110330;23;91421;-77
2023/04/12 07:58:52;;;;;;;4.38;1.23;;;9.70;94.40;;;;;;6190827;22;88069;-78
2023/04/12 08:01:18;;;;;;;7.43;1.50;;;9.70;94.40;;;;;;6206892;22;86919;-77
2023/04/12 08:03:45;;;;;;;10.32;1.15;;;9.90;94.50;;;;;;6206363;22;87600;-78
2023/04/12 08:06:11;;;;;;;6.00;1.40;;;9.90;94.30;;;;;;6179983;22;90822;-78
2023/04/12 08:08:37;;;;;;;10.75;1.45;;;10.00;94.50;;;;;;6179804;22;88568;-77
2023/04/12 08:11:05;;;;;;;6.70;1.10;;;10.00;93.90;;;;;;6180819;22;91101;-78
2023/04/12 08:13:31;;;;;;;6.30;1.20;;;10.00;93.50;;;;;;6179555;22;91404;-78
2023/04/12 08:15:57;;;;;;;10.63;1.25;;;10.00;93.60;;;;;;6204821;22;87689;-77
2023/04/12 08:18:23;;;;;;;8.82;1.42;;;10.00;93.90;;;;;;6178314;22;88196;-78
2023/04/12 08:20:49;;;;;;;6.32;1.40;;;9.90;93.80;;;;;;6176972;22;88514;-77
2023/04/12 08:23:15;;;;;;;4.20;1.30;;;9.80;93.90;;;;;;6176522;22;90557;-77
2023/04/12 08:25:41;;;;;;;7.68;1.63;;;9.80;93.40;;;;;;6206449;22;87343;-77
2023/04/12 08:28:07;;;;;;;9.00;1.90;;;9.70;93.20;;;;;;6204598;22;87590;-78
2023/04/12 08:30:33;;;;;;;14.93;1.65;;;9.70;92.30;;;;;;6170041;22;89509;-77
2023/04/12 08:32:59;;;;;;;11.80;1.55;;;9.70;92.70;;;;;;6138452;22;91911;-77
2023/04/12 08:35:25;;;;;;;8.48;1.40;;;9.70;92.60;;;;;;6168567;22;89232;-77
2023/04/12 08:37:51;;;;;;;4.95;1.48;;;9.80;92.10;;;;;;6144331;22;87455;-77
2023/04/12 08:40:16;;;;;;;7.25;0.75;;;9.80;91.30;;;;;;6144669;22;89986;-78
2023/04/12 08:42:43;;;;;;;6.22;0.90;;;9.80;90.80;;;;;;6144716;22;91446;-77
2023/04/12 08:45:13;;;;;;;8.82;1.08;;;9.80;91.00;;;;;;6144695;22;90591;-78
2023/04/12 08:47:40;;;;;;;9.02;1.27;;;9.90;91.40;;;;;;6144296;22;88359;-78
2023/04/12 08:50:08;;;;;;;7.00;1.30;;;10.00;91.10;;;;;;6145786;22;89553;-78
2023/04/12 08:52:36;;;;;;;8.90;1.17;;;10.20;91.20;;;;;;6169664;22;94283;-78
2023/04/12 08:55:09;;;;;;;6.95;1.23;;;10.30;90.50;;;;;;6144253;22;88729;-78
2023/04/12 08:57:35;;;;;;;6.43;1.00;;;10.40;90.80;;;;;;6110375;23;88903;-78
2023/04/12 09:00:02;;;;;;;5.70;0.98;;;10.60;89.50;;;;;;6047570;23;89812;-77
2023/04/12 09:02:28;;;;;;;6.38;1.10;;;10.80;90.40;;;;;;6050101;23;88132;-78
2023/04/12 09:04:55;;;;;;;10.68;1.60;;;11.10;89.30;;;;;;6026838;23;90434;-78
2023/04/12 09:07:22;;;;;;;8.10;1.23;;;11.20;88.00;;;;;;6050468;23;87568;-78
2023/04/12 09:09:49;;;;;;;5.90;1.40;;;11.20;86.60;;;;;;6049360;23;90319;-79
2023/04/12 09:12:15;;;;;;;8.60;1.10;;;11.30;84.70;;;;;;6020281;23;90294;-78
2023/04/12 09:14:44;;;;;;;21.10;2.17;;;11.50;85.60;;;;;;6050691;23;90668;-78
2023/04/12 09:17:27;;;;;;;10.57;1.52;;;11.50;82.00;;;;;;5988970;23;87695;-77
2023/04/12 09:19:55;;;;;;;11.55;1.65;;;11.60;83.20;;;;;;5969739;23;90384;-78
2023/04/12 09:22:38;;;;;;;14.15;2.00;;;11.70;83.60;;;;;;5989328;23;89113;-78
2023/04/12 09:25:06;;;;;;;;;;;11.70;85.30;;;;;;5969658;23;91144;-78
2023/04/12 09:27:48;;;;;;;15.05;1.90;;;11.70;83.90;;;;;;5973074;23;87791;-78
2023/04/12 09:30:15;;;;;;;15.73;1.92;;;11.80;82.80;;;;;;6038211;23;89235;-78
2023/04/12 09:32:41;;;;;;;14.02;2.03;;;11.80;79.00;;;;;;6090518;23;92825;-77
2023/04/12 09:35:07;;;;;;;16.70;2.00;;;11.90;81.00;;;;;;6091448;23;91036;-77
2023/04/12 09:37:33;;;;;;;15.65;1.65;;;12.10;82.30;;;;;;6115298;23;87140;-77
2023/04/12 09:40:07;;;;;;;11.18;2.20;;;12.30;80.70;;;;;;6094480;23;90167;-77
2023/04/12 09:42:34;;;;;;;24.98;2.70;;;12.40;77.90;;;;;;6122490;23;87775;-77
2023/04/12 09:45:20;;;;;;;13.80;2.40;;;12.70;80.40;;;;;;6101843;23;91305;-76
2023/04/12 09:47:46;;;;;;;15.50;2.13;;;12.80;76.20;;;;;;6122433;22;88123;-77
2023/04/12 09:50:39;;;;;;;11.57;2.03;;;12.90;75.00;;;;;;6188271;22;89255;-77
2023/04/12 09:53:16;;;;;;;16.90;2.88;;;13.00;75.90;;;;;;6190906;22;89596;-77
2023/04/12 09:55:42;;;;;;;20.58;3.35;;;13.10;74.40;;;;;;6178265;22;95158;-77
2023/04/12 09:58:10;;;;;;;12.00;2.05;;;13.00;73.00;;;;;;6203431;22;87695;-79
2023/04/12 10:00:36;;;;;;;20.77;2.38;;;12.80;73.60;;;;;;6185590;22;89824;-75
2023/04/12 10:03:02;;;;;;;10.32;1.92;;;12.80;72.20;;;;;;6184418;22;91584;-77
2023/04/12 10:05:28;;;;;;;14.00;2.20;;;12.70;71.70;;;;;;6177635;22;91067;-77
2023/04/12 10:07:55;;;;;;;14.65;2.00;;;12.60;75.30;;;;;;6177857;22;87748;-78
2023/04/12 10:10:22;;;;;;;15.48;2.00;;;12.50;74.00;;;;;;6172204;22;90656;-78
2023/04/12 10:12:49;;;;;;;21.40;3.97;;;12.40;75.80;;;;;;6168852;22;93296;-76
2023/04/12 10:15:20;;;;;;;18.75;2.38;;;12.40;76.80;;;;;;6173014;22;92166;-77
2023/04/12 10:17:52;;;;;;;16.33;2.17;;;12.30;76.50;;;;;;6173554;22;87170;-78
2023/04/12 10:20:19;;;;;;;20.48;2.38;;;12.30;78.30;;;;;;6173667;22;90137;-77
2023/04/12 10:22:50;;;;;;;20.27;2.38;;;12.30;78.00;;;;;;6171634;22;89411;-78
2023/04/12 10:25:18;;;;;;;10.00;2.08;;;12.30;78.50;;;;;;6150852;22;91379;-76
2023/04/12 10:27:45;;;;;;;15.18;2.25;;;12.30;78.20;;;;;;6148346;22;87597;-76
2023/04/12 10:30:30;;;;;;;16.33;2.28;;;12.20;76.50;;;;;;6174473;22;87683;-79
2023/04/12 10:33:05;;;;;;;15.77;2.00;;;12.10;76.30;;;;;;6140831;22;90457;-77
2023/04/12 10:35:50;;;;;;;16.90;2.13;;;12.00;76.80;;;;;;6142379;22;87781;-77
2023/04/12 10:38:17;;;;;;;18.60;2.90;;;12.00;76.60;;;;;;6124381;22;88144;-77
2023/04/12 10:41:10;;;;;;;23.55;2.60;;;12.00;74.90;;;;;;6142492;22;87114;-77
2023/04/12 10:43:35;;;;;;;19.67;2.58;;;12.10;76.50;;;;;;6141828;22;95872;-76
2023/04/12 10:46:05;;;;;;;13.23;2.28;;;12.20;77.80;;;;;;6141368;22;88340;-76
2023/04/12 10:48:38;;;;;;;16.92;2.30;;;12.30;76.00;;;;;;6142851;22;88229;-79
2023/04/12 10:58:34;;;;;;;22.85;2.58;;;13.50;71.10;;;;;;6119034;22;90494;-78
2023/04/12 11:01:03;;;;;;;20.83;2.53;;;13.80;70.40;;;;;;6021203;23;88491;-79
2023/04/12 11:03:29;;;;;;;15.00;2.85;;;13.80;68.30;;;;;;6040661;23;86986;-78
2023/04/12 11:06:02;;;;;;;13.43;2.15;;;13.60;70.20;;;;;;6015104;23;92046;-78
2023/04/12 11:12:13;;;;;;;12.50;2.58;;;13.30;67.70;;;;;;6040400;23;87636;-78
2023/04/12 11:14:49;;;;;;;19.17;2.95;;;13.10;69.30;;;;;;6015354;23;89129;-78
2023/04/12 11:17:15;;;;;;;15.80;2.65;;;13.10;69.60;;;;;;6041336;23;91379;-78
2023/04/12 11:19:47;;;;;;;14.70;3.50;;;13.40;69.20;;;;;;6040634;23;91149;-79
2023/04/12 11:22:59;;;;;;;12.77;2.78;;;13.50;68.40;;;;;;6041619;23;87093;-78
2023/04/12 11:25:25;;;;;;;23.60;3.50;;;13.50;69.90;;;;;;6041654;23;88797;-79
2023/04/12 11:27:53;;;;;;;11.52;2.00;;;13.60;70.00;;;;;;6040707;23;91033;-78
2023/04/12 11:30:19;;;;;;;20.77;2.78;;;13.70;68.90;;;;;;6041167;23;91276;-78
2023/04/12 11:32:46;;;;;;;16.90;2.58;;;13.60;70.30;;;;;;6040266;23;87970;-78
2023/04/12 11:35:15;;;;;;;19.00;2.97;;;13.60;68.20;;;;;;6040602;23;90316;-78
2023/04/12 11:37:41;;;;;;;14.18;2.45;;;13.60;70.40;;;;;;6129834;22;91665;-78
2023/04/12 11:40:08;;;;;;;12.65;2.20;;;13.30;67.70;;;;;;6190400;22;91137;-79
2023/04/12 11:42:34;;;;;;;13.65;2.42;;;12.70;70.70;;;;;;6190935;22;86996;-78
2023/04/12 11:45:00;;;;;;;9.57;1.90;;;12.20;77.30;;;;;;6188027;22;90217;-79
2023/04/12 11:47:26;;;;;;;12.30;1.65;;;11.30;83.30;;;;;;6186871;22;91188;-78
2023/04/12 11:49:55;;;;;;;18.52;2.88;;;10.70;87.60;;;;;;6184513;22;90752;-80
2023/04/12 11:52:27;;;;;;;7.05;1.35;;;10.50;90.00;;;;;;6179616;22;87126;-78
2023/04/12 11:54:57;;;;;;;8.48;1.40;;;10.50;88.80;;;;;;6178940;22;87558;-79
2023/04/12 11:57:23;;;;;;;7.28;1.25;;;10.50;90.30;;;;;;6177177;22;88966;-79
2023/04/12 11:59:49;;;;;;;7.32;1.63;;;10.60;89.10;;;;;;6141326;22;91967;-78
2023/04/12 12:02:17;;;;;;;6.25;1.50;;;10.90;90.10;;;;;;6116191;22;87542;-79
2023/04/12 12:04:47;;;;;;;7.03;1.73;;;11.40;91.10;;;;;;6120935;22;90219;-79
2023/04/12 12:07:15;;;;;;;8.35;1.55;;;12.00;88.00;;;;;;6128767;22;91229;-78
2023/04/12 12:09:44;;;;;;;9.95;1.83;;;12.30;85.30;;;;;;6129747;22;91151;-80
2023/04/12 12:12:11;;;;;;;12.45;1.88;;;12.60;82.90;;;;;;6152491;22;87560;-80
2023/04/12 12:14:37;;;;;;;8.93;2.17;;;12.70;82.00;;;;;;6092348;23;89609;-80
2023/04/12 12:17:10;;;;;;;6.88;1.40;;;13.00;80.90;;;;;;6066748;23;91404;-80
2023/04/12 12:19:38;;;;;;;8.50;1.48;;;13.30;80.90;;;;;;6092187;23;88356;-79
2023/04/12 12:22:20;;;;;;;11.30;2.58;;;13.30;76.10;;;;;;6064092;23;88772;-81
2023/04/12 12:24:50;;;;;;;14.02;1.92;;;13.00;78.60;;;;;;6082296;23;94812;-80
2023/04/12 12:27:49;;;;;;;8.57;1.60;;;13.10;82.40;;;;;;6057637;23;91797;-81
2023/04/12 12:30:20;;;;;;;9.65;1.77;;;13.00;73.00;;;;;;5994708;23;91282;-79
2023/04/12 12:32:49;;;;;;;16.33;2.00;;;12.90;77.10;;;;;;5995755;23;87721;-79
2023/04/12 12:35:15;;;;;;;9.23;1.83;;;12.80;74.20;;;;;;5992447;23;88899;-79
2023/04/12 12:37:51;;;;;;;9.35;2.95;;;12.80;75.00;;;;;;5994771;23;88324;-79
2023/04/12 12:40:17;;;;;;;8.70;1.70;;;12.70;73.40;;;;;;5997349;23;87405;-81
2023/04/12 12:42:53;;;;;;;5.07;0.98;;;12.40;75.60;;;;;;5997234;23;87705;-81
2023/04/12 12:45:21;;;;;;;11.80;2.10;;;12.20;74.00;;;;;;6019838;23;90722;-81
2023/04/12 12:48:01;;;;;;;6.53;1.17;;;11.70;77.90;;;;;;6054491;23;89759;-82
2023/04/12 12:50:34;;;;;;;4.40;0.77;;;11.20;80.20;;;;;;6034937;23;90809;-79
2023/04/12 12:53:01;;;;;;;5.45;1.02;;;10.80;84.40;;;;;;6027800;23;87553;-80
2023/04/12 12:55:28;;;;;;;3.95;1.02;;;10.70;83.20;;;;;;6028025;23;90256;-79
2023/04/12 12:57:56;;;;;;;2.78;0.65;;;10.60;85.00;;;;;;6027018;23;91879;-80
2023/04/12 13:00:25;;;;;;;4.32;0.80;;;10.70;82.90;;;;;;6027678;23;91229;-80
2023/04/12 13:02:51;;;;;;;4.30;1.00;;;11.30;82.80;;;;;;6029230;23;87784;-80
2023/04/12 13:05:18;;;;;;;1.90;0.50;;;12.00;79.70;;;;;;6044721;23;91314;-79
2023/04/12 13:07:44;;;;;;;9.35;1.20;;;12.60;77.70;;;;;;6175297;22;90444;-79